createdAt,value
2023-04-04T00:02:00.203Z,3.22
2023-04-04T00:04:30.744Z,2.83
2023-04-04T00:07:00.841Z,2.85
2023-04-04T00:09:30.827Z,2.84
2023-04-04T00:12:01.740Z,2.85
2023-04-04T00:14:32.598Z,2.84
2023-04-04T00:17:03.499Z,2.86
2023-04-04T00:19:34.458Z,2.8
2023-04-04T00:22:05.339Z,2.88
2023-04-04T00:24:36.208Z,2.8
2023-04-04T00:27:07.114Z,2.8
2023-04-04T00:29:38.157Z,2.87
2023-04-04T00:32:08.969Z,2.87
2023-04-04T00:34:39.832Z,2.87
2023-04-04T00:37:10.759Z,2.87
2023-04-04T00:39:41.790Z,2.74
2023-04-04T00:42:11.675Z,2.94
2023-04-04T00:44:41.752Z,2.93
2023-04-04T00:47:12.370Z,2.93
2023-04-04T00:49:42.378Z,2.99
2023-04-04T00:52:12.462Z,2.99
2023-04-04T00:54:42.528Z,3.06
2023-04-04T00:57:13.455Z,2.98
2023-04-04T00:59:44.346Z,3.06
2023-04-04T01:02:15.267Z,3.06
2023-04-04T01:04:45.839Z,3.03
2023-04-04T01:07:15.893Z,3.04
2023-04-04T01:09:46.222Z,2.97
2023-04-04T01:12:16.293Z,2.89
2023-04-04T01:14:47.145Z,2.77
2023-04-04T01:17:16.928Z,2.93
2023-04-04T01:19:47.092Z,3.02
2023-04-04T01:22:17.082Z,2.92
2023-04-04T01:24:47.167Z,2.85
2023-04-04T01:27:17.147Z,2.99
2023-04-04T01:29:47.233Z,2.98
2023-04-04T01:32:18.130Z,3.05
2023-04-04T01:34:48.127Z,3.06
2023-04-04T01:37:18.209Z,2.98
2023-04-04T01:39:48.271Z,3.04
2023-04-04T01:42:19.173Z,2.96
2023-04-04T01:44:50.097Z,3.02
2023-04-04T01:47:21.006Z,3.02
2023-04-04T01:49:51.898Z,2.95
2023-04-04T01:52:22.495Z,2.95
2023-04-04T01:54:52.835Z,2.88
2023-04-04T01:57:22.857Z,2.95
2023-04-04T01:59:53.486Z,2.81
2023-04-04T02:02:24.261Z,2.81
2023-04-04T02:04:54.131Z,2.89
2023-04-04T02:07:24.283Z,2.81
2023-04-04T02:09:54.382Z,2.75
2023-04-04T02:12:24.338Z,2.68
2023-04-04T02:14:54.414Z,2.68
2023-04-04T02:17:24.510Z,2.75
2023-04-04T02:19:54.502Z,2.83
2023-04-04T02:22:24.637Z,2.82
2023-04-04T02:24:54.681Z,2.91
2023-04-04T02:27:24.708Z,2.92
2023-04-04T02:29:54.824Z,2.84
2023-04-04T02:32:24.883Z,2.83
2023-04-04T02:34:54.863Z,2.9
2023-04-04T02:37:24.967Z,2.82
2023-04-04T02:39:55.605Z,2.9
2023-04-04T02:42:25.780Z,2.91
2023-04-04T02:44:56.278Z,2.85
2023-04-04T02:47:26.537Z,2.79
2023-04-04T02:49:56.398Z,2.85
2023-04-04T02:52:26.468Z,2.92
2023-04-04T02:54:56.514Z,2.9
2023-04-04T02:57:26.546Z,2.98
2023-04-04T02:59:56.628Z,2.88
2023-04-04T03:02:26.756Z,2.95
2023-04-04T03:04:56.726Z,2.88
2023-04-04T03:07:27.425Z,2.88
2023-04-04T03:09:57.603Z,2.95
2023-04-04T03:12:28.087Z,2.88
2023-04-04T03:14:58.176Z,2.84
2023-04-04T03:17:28.311Z,2.79
2023-04-04T03:19:58.318Z,3.02
2023-04-04T03:22:28.462Z,2.94
2023-04-04T03:24:58.588Z,2.73
2023-04-04T03:27:28.713Z,2.74
2023-04-04T03:29:58.727Z,2.81
2023-04-04T03:32:28.964Z,3.02
2023-04-04T03:34:58.961Z,3.18
2023-04-04T03:37:29.020Z,3.06
2023-04-04T03:39:59.708Z,3
2023-04-04T03:42:29.850Z,3.09
2023-04-04T03:44:59.921Z,3.08
2023-04-04T03:47:30.134Z,3.23
2023-04-04T03:50:00.194Z,3.22
2023-04-04T03:52:30.311Z,3.36
2023-04-04T03:55:00.414Z,3.37
2023-04-04T03:57:30.551Z,3.13
2023-04-04T04:00:01.163Z,2.97
2023-04-04T04:02:31.379Z,3.12
2023-04-04T04:05:01.342Z,3.04
2023-04-04T04:07:31.510Z,3.04
2023-04-04T04:10:02.154Z,3.04
2023-04-04T04:12:32.220Z,2.98
2023-04-04T04:15:02.589Z,2.82
2023-04-04T04:17:32.682Z,2.81
2023-04-04T04:20:03.314Z,3
2023-04-04T04:22:33.474Z,3.15
2023-04-04T04:25:03.514Z,2.93
2023-04-04T04:27:34.189Z,2.64
2023-04-04T04:30:04.305Z,2.71
2023-04-04T04:32:34.388Z,2.72
2023-04-04T04:35:05.117Z,2.79
2023-04-04T04:37:35.223Z,3
2023-04-04T04:40:05.270Z,2.89
2023-04-04T04:42:35.444Z,2.84
2023-04-04T04:45:05.578Z,2.98
2023-04-04T04:47:35.720Z,3.04
2023-04-04T04:50:06.395Z,3.06
2023-04-04T04:52:37.169Z,3.22
2023-04-04T04:55:07.767Z,3.28
2023-04-04T04:57:38.066Z,3.43
2023-04-04T05:00:08.198Z,3.36
2023-04-04T05:02:38.551Z,3.28
2023-04-04T05:05:08.577Z,3.18
2023-04-04T05:07:39.232Z,2.88
2023-04-04T05:10:09.350Z,2.81
2023-04-04T05:12:39.501Z,2.88
2023-04-04T05:15:09.583Z,2.88
2023-04-04T05:17:39.782Z,2.89
2023-04-04T05:20:09.886Z,2.89
2023-04-04T05:22:40.011Z,2.97
2023-04-04T05:25:10.159Z,2.9
2023-04-04T05:27:40.398Z,3.2
2023-04-04T05:30:10.401Z,3.26
2023-04-04T05:32:40.603Z,3.26
2023-04-04T05:35:10.848Z,3.01
2023-04-04T05:37:40.865Z,3.02
2023-04-04T05:40:10.965Z,2.94
2023-04-04T05:42:41.147Z,3.17
2023-04-04T05:45:11.777Z,3.16
2023-04-04T05:47:41.963Z,3.01
2023-04-04T05:50:12.629Z,2.96
2023-04-04T05:52:42.736Z,2.96
2023-04-04T05:55:12.842Z,2.95
2023-04-04T05:57:43.087Z,2.89
2023-04-04T06:00:13.064Z,2.9
2023-04-04T06:02:43.265Z,2.93
2023-04-04T06:05:13.334Z,3.09
2023-04-04T06:07:43.838Z,3.94
2023-04-04T06:10:13.937Z,3.1
2023-04-04T06:12:44.555Z,2.98
2023-04-04T06:15:15.239Z,2.78
2023-04-04T06:17:45.444Z,2.63
2023-04-04T06:20:16.037Z,2.58
2023-04-04T06:22:46.213Z,2.86
2023-04-04T06:25:16.356Z,2.8
2023-04-04T06:27:46.461Z,2.69
2023-04-04T06:30:16.601Z,2.71
2023-04-04T06:32:46.950Z,2.73
2023-04-04T06:35:18.194Z,2.78
2023-04-04T06:37:47.170Z,2.87
2023-04-04T06:40:17.243Z,2.86
2023-04-04T06:42:47.359Z,2.86
2023-04-04T06:45:17.796Z,2.91
2023-04-04T06:47:47.956Z,2.77
2023-04-04T06:50:18.594Z,2.73
2023-04-04T06:52:48.790Z,2.71
2023-04-04T06:55:19.390Z,2.77
2023-04-04T06:57:49.543Z,2.91
2023-04-04T07:00:19.673Z,2.75
2023-04-04T07:02:49.765Z,2.96
2023-04-04T07:05:19.850Z,2.87
2023-04-04T07:07:50.002Z,2.86
2023-04-04T07:10:20.010Z,2.84
2023-04-04T07:12:50.135Z,2.68
2023-04-04T07:15:20.302Z,2.74
2023-04-04T07:17:50.322Z,2.74
2023-04-04T07:20:20.388Z,2.67
2023-04-04T07:22:50.491Z,2.69
2023-04-04T07:25:20.489Z,2.61
2023-04-04T07:27:55.115Z,2.76
2023-04-04T07:30:20.675Z,2.46
2023-04-04T07:32:50.711Z,2.61
2023-04-04T07:35:20.792Z,2.68
2023-04-04T07:37:50.920Z,2.67
2023-04-04T07:40:20.904Z,2.61
2023-04-04T07:42:50.992Z,2.74
2023-04-04T07:45:21.074Z,2.8
2023-04-04T07:47:51.284Z,2.66
2023-04-04T07:50:21.211Z,2.73
2023-04-04T07:52:51.383Z,2.79
2023-04-04T07:55:22.132Z,2.79
2023-04-04T07:57:53.092Z,2.72
2023-04-04T08:00:23.640Z,2.71
2023-04-04T08:02:53.805Z,2.63
2023-04-04T08:05:23.722Z,2.61
2023-04-04T08:07:54.260Z,2.68
2023-04-04T08:10:24.336Z,2.73
2023-04-04T08:12:54.337Z,2.65
2023-04-04T08:15:25.228Z,2.65
2023-04-04T08:17:56.253Z,2.49
2023-04-04T08:20:27.051Z,2.61
2023-04-04T08:22:57.842Z,2.39
2023-04-04T08:25:28.741Z,2.3
2023-04-04T08:27:59.595Z,2.28
2023-04-04T08:30:30.427Z,2.27
2023-04-04T08:33:02.321Z,2.12
2023-04-04T08:35:32.185Z,2.06
2023-04-04T08:38:03.006Z,2.02
2023-04-04T08:40:34.960Z,2.02
2023-04-04T08:43:04.726Z,2.14
2023-04-04T08:45:35.584Z,2.07
2023-04-04T08:48:06.497Z,1.99
2023-04-04T08:50:37.445Z,2.19
2023-04-04T08:53:08.140Z,1.92
2023-04-04T08:55:38.976Z,2.04
2023-04-04T08:58:09.843Z,1.89
2023-04-04T09:00:40.884Z,1.76
2023-04-04T09:03:11.544Z,1.77
2023-04-04T09:05:42.320Z,1.89
2023-04-04T09:08:13.178Z,1.73
2023-04-04T09:10:44.009Z,1.61
2023-04-04T09:13:16.671Z,1.66
2023-04-04T09:15:45.629Z,1.65
2023-04-04T09:18:16.460Z,1.69
2023-04-04T09:20:47.243Z,1.64
2023-04-04T09:23:18.042Z,1.63
2023-04-04T09:26:02.554Z,1.45
2023-04-04T09:28:19.756Z,1.44
2023-04-04T09:30:50.446Z,1.74
2023-04-04T09:33:21.327Z,1.39
2023-04-04T09:35:52.227Z,1.36
2023-04-04T09:38:22.911Z,1.71
2023-04-04T09:40:53.623Z,1.6
2023-04-04T09:43:24.400Z,1.38
2023-04-04T09:45:55.302Z,1.3
2023-04-04T09:48:25.903Z,1.32
2023-04-04T09:50:56.628Z,1.47
2023-04-04T09:53:27.372Z,1.28
2023-04-04T09:55:58.100Z,1.32
2023-04-04T09:58:28.933Z,1.21
2023-04-04T10:00:59.673Z,1.42
2023-04-04T10:03:30.303Z,1.2
2023-04-04T10:06:01.028Z,1.35
2023-04-04T10:08:31.769Z,1.39
2023-04-04T10:11:09.690Z,1.45
2023-04-04T10:13:33.226Z,1.73
2023-04-04T10:16:03.954Z,1.28
2023-04-04T10:18:34.641Z,1.26
2023-04-04T10:21:15.336Z,1.63
2023-04-04T10:23:36.008Z,1.46
2023-04-04T10:26:06.690Z,1.57
2023-04-04T10:28:37.402Z,1.41
2023-04-04T10:31:08.119Z,1.55
2023-04-04T10:33:38.762Z,1.91
2023-04-04T10:36:09.461Z,1.7
2023-04-04T10:38:40.103Z,1.55
2023-04-04T10:41:10.826Z,1.25
2023-04-04T10:43:41.359Z,1.2
2023-04-04T10:46:12.013Z,1.18
2023-04-04T10:48:42.690Z,1.24
2023-04-04T10:51:13.297Z,1.28
2023-04-04T10:53:44.014Z,1.38
2023-04-04T10:56:14.659Z,1.28
2023-04-04T10:58:45.256Z,1.18
2023-04-04T11:01:15.952Z,1.34
2023-04-04T11:03:46.580Z,1.19
2023-04-04T11:06:17.207Z,1.24
2023-04-04T11:08:47.904Z,1.29
2023-04-04T11:11:22.667Z,1.29
2023-04-04T11:13:49.197Z,1.28
2023-04-04T11:16:19.874Z,1.19
2023-04-04T11:18:50.525Z,1.28
2023-04-04T11:21:21.166Z,1.28
2023-04-04T11:23:51.910Z,1.14
2023-04-04T11:26:22.489Z,1.38
2023-04-04T11:28:53.150Z,1.23
2023-04-04T11:31:23.859Z,1.28
2023-04-04T11:33:54.464Z,1.18
2023-04-04T11:36:25.140Z,1.28
2023-04-04T11:38:55.785Z,1.32
2023-04-04T11:41:26.399Z,1.34
2023-04-04T11:43:57.065Z,1.32
2023-04-04T11:46:27.718Z,1.23
2023-04-04T11:48:58.356Z,1.22
2023-04-04T11:51:28.632Z,1.22
2023-04-04T11:53:59.303Z,1.27
2023-04-04T11:56:29.931Z,1.55
2023-04-04T11:59:10.732Z,1.57
2023-04-04T12:01:31.213Z,1.66
2023-04-04T12:04:01.838Z,1.55
2023-04-04T12:06:32.454Z,1.39
2023-04-04T12:09:03.063Z,1.29
2023-04-04T12:11:33.664Z,1.33
2023-04-04T12:14:04.285Z,1.18
2023-04-04T12:16:34.994Z,1.24
2023-04-04T12:19:05.519Z,1.19
2023-04-04T12:21:36.136Z,1.29
2023-04-04T12:24:06.778Z,1.25
2023-04-04T12:26:37.383Z,1.26
2023-04-04T12:29:08.026Z,1.35
2023-04-04T12:31:38.758Z,1.24
2023-04-04T12:34:09.276Z,1.15
2023-04-04T12:36:39.887Z,1.34
2023-04-04T12:39:10.542Z,1.11
2023-04-04T12:41:41.167Z,1.16
2023-04-04T12:44:11.804Z,1.2
2023-04-04T12:46:42.462Z,1.3
2023-04-04T12:49:13.186Z,1.11
2023-04-04T12:51:43.724Z,1.14
2023-04-04T12:54:14.377Z,1.06
2023-04-04T12:56:45.007Z,1.06
2023-04-04T12:59:15.766Z,1.15
2023-04-04T13:01:46.287Z,1.06
2023-04-04T13:04:16.980Z,1.1
2023-04-04T13:06:47.548Z,1.14
2023-04-04T13:09:18.168Z,1.1
2023-04-04T13:11:48.768Z,1.15
2023-04-04T13:14:19.490Z,1.14
2023-04-04T13:16:50.036Z,1.1
2023-04-04T13:19:20.641Z,1.19
2023-04-04T13:21:51.252Z,1.19
2023-04-04T13:24:21.909Z,1.14
2023-04-04T13:26:52.564Z,1.36
2023-04-04T13:29:23.115Z,1.36
2023-04-04T13:31:53.696Z,1.36
2023-04-04T13:34:24.270Z,1.17
2023-04-04T13:36:54.947Z,1.13
2023-04-04T13:39:25.528Z,1.08
2023-04-04T13:41:56.001Z,1.1
2023-04-04T13:44:27.281Z,1.09
2023-04-04T13:46:57.311Z,1.06
2023-04-04T13:49:27.802Z,1.1
2023-04-04T13:51:58.386Z,1.14
2023-04-04T13:54:29.094Z,1.14
2023-04-04T13:56:59.604Z,1.1
2023-04-04T13:59:30.007Z,1.1
2023-04-04T14:02:00.615Z,1.01
2023-04-04T14:04:31.166Z,0.97
2023-04-04T14:07:01.707Z,1.05
2023-04-04T14:09:32.322Z,1.06
2023-04-04T14:12:03.000Z,1.02
2023-04-04T14:14:35.561Z,1.11
2023-04-04T14:17:04.119Z,1.11
2023-04-04T14:19:34.740Z,1.1
2023-04-04T14:22:05.324Z,1.15
2023-04-04T14:24:35.936Z,1.02
2023-04-04T14:27:06.552Z,1.06
2023-04-04T14:29:37.159Z,1.03
2023-04-04T14:32:07.767Z,1.06
2023-04-04T14:34:38.376Z,1.03
2023-04-04T14:37:08.986Z,1.07
2023-04-04T14:39:39.652Z,1.07
2023-04-04T14:42:10.299Z,0.94
2023-04-04T14:44:40.852Z,1.06
2023-04-04T14:47:11.462Z,1.19
2023-04-04T14:49:42.083Z,1.15
2023-04-04T14:52:12.668Z,1.06
2023-04-04T14:54:43.300Z,1.1
2023-04-04T14:57:13.900Z,1.06
2023-04-04T14:59:44.608Z,1.02
2023-04-04T15:02:15.154Z,1.06
2023-04-04T15:04:45.279Z,1.1
2023-04-04T15:07:16.128Z,1.19
2023-04-04T15:09:46.770Z,1.06
2023-04-04T15:12:17.086Z,1.23
2023-04-04T15:14:47.652Z,1.32
2023-04-04T15:17:18.267Z,1.32
2023-04-04T15:19:48.841Z,1.32
2023-04-04T15:22:19.422Z,1.36
2023-04-04T15:24:50.103Z,1.14
2023-04-04T15:27:20.581Z,1.22
2023-04-04T15:29:51.171Z,1.17
2023-04-04T15:32:21.760Z,1.12
2023-04-04T15:34:52.343Z,1.17
2023-04-04T15:37:22.903Z,1.3
2023-04-04T15:39:54.502Z,1.35
2023-04-04T15:42:24.066Z,1.35
2023-04-04T15:44:54.644Z,1.26
2023-04-04T15:47:25.221Z,1.3
2023-04-04T15:49:55.780Z,1.26
2023-04-04T15:52:26.347Z,1.17
2023-04-04T15:54:56.930Z,1.17
2023-04-04T15:57:27.509Z,1.14
2023-04-04T15:59:58.095Z,1.14
2023-04-04T16:02:28.763Z,1.18
2023-04-04T16:04:59.403Z,1.14
2023-04-04T16:07:29.870Z,1.19
2023-04-04T16:10:00.508Z,1.28
2023-04-04T16:12:31.109Z,1.23
2023-04-04T16:15:01.723Z,1.15
2023-04-04T16:17:33.310Z,1.23
2023-04-04T16:20:02.872Z,1.24
2023-04-04T16:22:33.450Z,1.24
2023-04-04T16:25:04.052Z,1.37
2023-04-04T16:27:34.687Z,1.28
2023-04-04T16:30:05.277Z,1.29
2023-04-04T16:32:35.632Z,1.35
2023-04-04T16:35:06.198Z,1.31
2023-04-04T16:37:36.888Z,1.27
2023-04-04T16:40:07.415Z,1.27
2023-04-04T16:42:38.078Z,1.31
2023-04-04T16:45:08.403Z,1.26
2023-04-04T16:47:39.009Z,1.4
2023-04-04T16:50:09.604Z,1.44
2023-04-04T16:52:41.651Z,1.44
2023-04-04T16:55:10.929Z,1.4
2023-04-04T16:57:41.467Z,1.35
2023-04-04T17:00:12.110Z,1.44
2023-04-04T17:02:42.417Z,1.36
2023-04-04T17:05:13.145Z,1.35
2023-04-04T17:07:43.636Z,1.41
2023-04-04T17:10:14.387Z,1.4
2023-04-04T17:12:44.941Z,1.45
2023-04-04T17:15:17.638Z,1.37
2023-04-04T17:17:46.252Z,1.42
2023-04-04T17:20:16.606Z,1.42
2023-04-04T17:22:47.217Z,1.37
2023-04-04T17:25:17.876Z,1.43
2023-04-04T17:27:47.896Z,1.34
2023-04-04T17:30:18.558Z,1.29
2023-04-04T17:32:49.235Z,1.4
2023-04-04T17:35:19.985Z,1.35
2023-04-04T17:37:50.012Z,1.4
2023-04-04T17:40:20.684Z,1.4
2023-04-04T17:42:51.337Z,1.5
2023-04-04T17:45:22.004Z,1.4
2023-04-04T17:47:52.386Z,1.4
2023-04-04T17:50:23.047Z,1.4
2023-04-04T17:52:53.718Z,1.4
2023-04-04T17:55:24.409Z,1.35
2023-04-04T17:57:54.999Z,1.4
2023-04-04T18:00:25.801Z,1.45
2023-04-04T18:02:56.585Z,1.45
2023-04-04T18:05:27.100Z,1.49
2023-04-04T18:07:57.678Z,1.49
2023-04-04T18:10:28.360Z,1.5
2023-04-04T18:12:59.008Z,1.5
2023-04-04T18:15:29.421Z,1.5
2023-04-04T18:17:59.801Z,1.54
2023-04-04T18:20:34.874Z,1.5
2023-04-04T18:23:01.203Z,1.5
2023-04-04T18:25:31.744Z,1.5
2023-04-04T18:28:02.384Z,1.46
2023-04-04T18:30:33.067Z,1.55
2023-04-04T18:33:03.772Z,1.6
2023-04-04T18:35:34.437Z,1.56
2023-04-04T18:38:05.021Z,1.66
2023-04-04T18:40:35.702Z,1.66
2023-04-04T18:43:06.477Z,1.57
2023-04-04T18:45:40.421Z,1.67
2023-04-04T18:48:07.754Z,1.62
2023-04-04T18:50:38.779Z,1.68
2023-04-04T18:53:08.674Z,1.72
2023-04-04T18:55:39.374Z,1.73
2023-04-04T18:58:10.027Z,1.74
2023-04-04T19:00:41.082Z,1.74
2023-04-04T19:03:12.988Z,1.74
2023-04-04T19:05:41.828Z,1.85
2023-04-04T19:08:12.443Z,1.79
2023-04-04T19:10:42.848Z,1.75
2023-04-04T19:13:13.506Z,1.81
2023-04-04T19:15:44.196Z,1.81
2023-04-04T19:18:15.039Z,1.82
2023-04-04T19:20:45.718Z,1.83
2023-04-04T19:23:15.865Z,1.88
2023-04-04T19:25:46.670Z,1.87
2023-04-04T19:28:17.381Z,1.87
2023-04-04T19:30:48.031Z,1.88
2023-04-04T19:33:18.618Z,1.88
2023-04-04T19:35:49.453Z,1.89
2023-04-04T19:38:20.055Z,1.84
2023-04-04T19:40:50.773Z,1.84
2023-04-04T19:43:21.096Z,1.84
2023-04-04T19:45:51.828Z,1.85
2023-04-04T19:48:22.215Z,1.84
2023-04-04T19:50:52.917Z,1.85
2023-04-04T19:53:23.235Z,1.85
2023-04-04T19:55:54.046Z,1.86
2023-04-04T19:58:24.368Z,1.86
2023-04-04T20:00:55.108Z,1.87
2023-04-04T20:03:25.755Z,1.91
2023-04-04T20:05:56.595Z,1.86
2023-04-04T20:08:26.885Z,1.91
2023-04-04T20:10:56.980Z,1.91
2023-04-04T20:13:27.758Z,1.86
2023-04-04T20:15:59.830Z,1.92
2023-04-04T20:18:28.812Z,1.92
2023-04-04T20:20:59.235Z,1.97
2023-04-04T20:23:29.848Z,1.97
2023-04-04T20:26:00.565Z,2.02
2023-04-04T20:28:31.281Z,2.03
2023-04-04T20:31:02.094Z,2.02
2023-04-04T20:33:32.691Z,2.18
2023-04-04T20:36:03.171Z,2.12
2023-04-04T20:38:33.822Z,2.23
2023-04-04T20:41:04.592Z,2.23
2023-04-04T20:43:34.981Z,2.23
2023-04-04T20:46:05.396Z,2.23
2023-04-04T20:48:36.086Z,2.23
2023-04-04T20:51:06.839Z,2.23
2023-04-04T20:53:37.476Z,2.24
2023-04-04T20:56:08.296Z,2.13
2023-04-04T20:58:38.632Z,1.92
2023-04-04T21:01:10.219Z,2.08
2023-04-04T21:03:40.076Z,2.03
2023-04-04T21:06:10.866Z,2.03
2023-04-04T21:08:41.350Z,2.09
2023-04-04T21:11:12.102Z,2.1
2023-04-04T21:13:42.761Z,2.22
2023-04-04T21:16:13.658Z,2.22
2023-04-04T21:18:44.732Z,2.23
2023-04-04T21:21:15.823Z,2.25
2023-04-04T21:23:46.066Z,2.24
2023-04-04T21:26:18.024Z,2.19
2023-04-04T21:28:47.488Z,2.05
2023-04-04T21:31:18.474Z,2.16
2023-04-04T21:33:48.961Z,2.06
2023-04-04T21:36:19.554Z,2.06
2023-04-04T21:38:49.480Z,2.03
2023-04-04T21:41:20.397Z,2.05
2023-04-04T21:43:50.585Z,2.09
2023-04-04T21:46:21.388Z,2.2
2023-04-04T21:48:52.072Z,2.15
2023-04-04T21:51:22.288Z,2
2023-04-04T21:53:52.762Z,2.06
2023-04-04T21:56:23.037Z,2.18
2023-04-04T21:58:53.461Z,2.19
2023-04-04T22:01:24.322Z,2.32
2023-04-04T22:03:55.146Z,2.26
2023-04-04T22:06:25.943Z,2.33
2023-04-04T22:08:56.761Z,2.34
2023-04-04T22:11:27.345Z,2.46
2023-04-04T22:13:58.155Z,2.34
2023-04-04T22:16:29.063Z,2.43
2023-04-04T22:18:59.501Z,2.48
2023-04-04T22:21:30.336Z,2.59
2023-04-04T22:24:01.227Z,2.46
2023-04-04T22:26:31.753Z,2.46
2023-04-04T22:29:02.515Z,2.4
2023-04-04T22:31:33.391Z,2.33
2023-04-04T22:34:03.990Z,2.34
2023-04-04T22:36:34.379Z,2.4
2023-04-04T22:39:05.156Z,2.36
2023-04-04T22:41:36.055Z,2.36
2023-04-04T22:44:06.817Z,2.44
2023-04-04T22:46:37.659Z,2.43
2023-04-04T22:49:08.207Z,2.39
2023-04-04T22:51:39.068Z,2.28
2023-04-04T22:54:09.604Z,2.34
2023-04-04T22:56:40.457Z,2.28
2023-04-04T22:59:11.441Z,2.25
2023-04-04T23:01:42.201Z,2.25
2023-04-04T23:04:12.608Z,2.3
2023-04-04T23:06:43.441Z,2.36
2023-04-04T23:09:14.238Z,2.3
2023-04-04T23:11:44.828Z,2.29
2023-04-04T23:14:15.469Z,2.26
2023-04-04T23:16:46.217Z,2.25
2023-04-04T23:19:17.048Z,2.25
2023-04-04T23:21:47.932Z,2.13
2023-04-04T23:24:18.750Z,2.13
2023-04-04T23:26:49.622Z,2.07
2023-04-04T23:29:20.152Z,2.09
2023-04-04T23:31:50.785Z,2.27
2023-04-04T23:34:20.842Z,2.3
2023-04-04T23:36:51.765Z,2.28
2023-04-04T23:39:22.039Z,2.25
2023-04-04T23:41:52.350Z,2.33
2023-04-04T23:44:23.095Z,2.29
2023-04-04T23:46:53.194Z,2.43
2023-04-04T23:49:23.097Z,2.36
2023-04-04T23:51:53.851Z,2.41
2023-04-04T23:54:24.411Z,2.54
2023-04-04T23:56:54.445Z,2.48
2023-04-04T23:59:24.899Z,2.53
